O John Clark Restricted Landing Area [CLOSED]

Jump to: basic info | weather | comments

Related pages: nearby airports | nearby navaids | notams | map

Basic information (top)

Codes: 7IL2
Location: lon 42.368401, lat -87.991699, elev 790 ft / 241 m msl
Status: closed

Weather (top)

Current conditions for Waukegan Regional Airport 6nm (12km) ENE (rec'd 2014/09/01 19:52Z):

KUGN 011952Z 22014G22KT 10SM FEW040 SCT049 27/18 A2973 RMK AO2 SLP054 T02720183

Airport forecast for Kenosha Regional Airport 14nm (26km) NNE (rec'd 2014/09/01 18:24Z):

TAF KENW 011722Z 0118/0218 24015G25KT P6SM SCT025 BKN060 
     FM012200 24014G21KT P6SM SCT020 BKN035 
     FM020000 25010KT P6SM SCT035 BKN050 
     FM020300 26007KT P6SM SCT070 
     FM021500 21008KT P6SM BKN050

Latest comments (top)

No comments yet for O John Clark Restricted Landing Area

More... (top)

See also NOTAMs and nearby airports and navaids, or visit the O John Clark Restricted Landing Area page at the main OurAirports website..